createdAt,value
2022-12-29T00:01:02.245Z,9.96
2022-12-29T00:03:31.738Z,10.41
2022-12-29T00:05:59.757Z,10.04
2022-12-29T00:08:41.595Z,10.42
2022-12-29T00:11:10.813Z,10.41
2022-12-29T00:13:56.190Z,10.36
2022-12-29T00:16:24.347Z,10.66
2022-12-29T00:18:53.797Z,10.33
2022-12-29T00:21:41.381Z,10.08
2022-12-29T00:24:31.257Z,10.20
2022-12-29T00:27:29.000Z,10.53
2022-12-29T00:30:22.564Z,10.24
2022-12-29T00:33:08.033Z,10.51
2022-12-29T00:35:41.491Z,10.65
2022-12-29T00:38:28.650Z,10.36
2022-12-29T00:41:14.361Z,10.63
2022-12-29T00:43:59.719Z,10.82
2022-12-29T00:46:27.589Z,10.58
2022-12-29T00:49:14.152Z,10.89
2022-12-29T00:51:43.269Z,10.41
2022-12-29T00:54:11.397Z,10.87
2022-12-29T00:56:39.243Z,10.59
2022-12-29T00:59:08.770Z,10.11
2022-12-29T01:01:37.356Z,10.51
2022-12-29T01:04:06.001Z,10.57
2022-12-29T01:06:34.811Z,10.23
2022-12-29T01:09:21.961Z,10.52
2022-12-29T01:11:49.975Z,10.72
2022-12-29T01:14:18.420Z,10.49
2022-12-29T01:16:47.063Z,10.52
2022-12-29T01:19:16.067Z,10.41
2022-12-29T01:21:46.136Z,10.96
2022-12-29T01:24:15.884Z,11.07
2022-12-29T01:26:43.676Z,10.93
2022-12-29T01:29:11.682Z,10.91
2022-12-29T01:31:40.359Z,10.75
2022-12-29T01:34:10.332Z,10.91
2022-12-29T01:36:39.567Z,10.79
2022-12-29T01:39:07.326Z,10.41
2022-12-29T01:41:36.641Z,10.46
2022-12-29T01:44:04.622Z,10.73
2022-12-29T01:46:36.834Z,10.66
2022-12-29T01:49:12.875Z,11.18
2022-12-29T01:51:45.617Z,10.84
2022-12-29T01:54:16.905Z,10.67
2022-12-29T01:56:47.291Z,10.71
2022-12-29T01:59:20.259Z,10.83
2022-12-29T02:01:48.763Z,10.95
2022-12-29T02:04:16.958Z,10.75
2022-12-29T02:06:51.758Z,11.30
2022-12-29T02:09:19.770Z,11.31
2022-12-29T02:11:49.306Z,11.38
2022-12-29T02:14:19.491Z,11.52
2022-12-29T02:17:04.283Z,11.14
2022-12-29T02:20:11.183Z,11.13
2022-12-29T02:22:54.133Z,11.17
2022-12-29T02:26:00.178Z,11.31
2022-12-29T02:28:56.248Z,11.31
2022-12-29T02:31:30.710Z,11.46
2022-12-29T02:34:08.997Z,11.50
2022-12-29T02:36:44.950Z,11.76
2022-12-29T02:39:24.141Z,11.58
2022-12-29T02:42:04.429Z,11.46
2022-12-29T02:44:42.067Z,11.69
2022-12-29T02:47:17.781Z,11.76
2022-12-29T02:49:54.698Z,11.56
2022-12-29T02:52:29.678Z,11.64
2022-12-29T02:54:56.503Z,11.97
2022-12-29T02:57:33.726Z,12.23
2022-12-29T03:00:09.567Z,11.82
2022-12-29T03:03:03.190Z,12.00
2022-12-29T03:05:45.188Z,11.69
2022-12-29T03:08:25.232Z,11.75
2022-12-29T03:11:01.612Z,11.67
2022-12-29T03:13:53.672Z,12.25
2022-12-29T03:16:26.135Z,11.88
2022-12-29T03:19:02.092Z,12.01
2022-12-29T03:21:53.384Z,11.82
2022-12-29T03:24:27.174Z,12.07
2022-12-29T03:26:59.903Z,12.15
2022-12-29T03:29:32.927Z,12.63
2022-12-29T03:32:03.605Z,12.13
2022-12-29T03:34:34.192Z,12.06
2022-12-29T03:37:06.940Z,12.17
2022-12-29T03:39:35.358Z,12.46
2022-12-29T03:42:08.652Z,11.68
2022-12-29T03:44:40.132Z,11.63
2022-12-29T03:47:09.651Z,11.90
2022-12-29T03:49:39.379Z,12.21
2022-12-29T03:52:07.637Z,12.11
2022-12-29T03:54:40.953Z,12.50
2022-12-29T03:57:08.743Z,12.35
2022-12-29T03:59:47.033Z,12.09
2022-12-29T04:02:15.105Z,12.09
2022-12-29T04:04:44.692Z,12.14
2022-12-29T04:07:13.439Z,12.08
2022-12-29T04:09:43.783Z,11.83
2022-12-29T04:12:16.589Z,11.90
2022-12-29T04:14:44.907Z,12.29
2022-12-29T04:17:12.978Z,12.07
2022-12-29T04:19:42.364Z,11.97
2022-12-29T04:22:13.317Z,11.94
2022-12-29T04:24:42.175Z,12.00
2022-12-29T04:27:12.345Z,12.02
2022-12-29T04:30:06.106Z,12.23
2022-12-29T04:32:56.619Z,12.15
2022-12-29T04:35:24.378Z,12.20
2022-12-29T04:37:53.561Z,12.08
2022-12-29T04:40:21.847Z,12.07
2022-12-29T04:42:50.140Z,12.07
2022-12-29T04:45:19.778Z,11.91
2022-12-29T04:48:10.324Z,11.94
2022-12-29T04:50:58.350Z,12.10
2022-12-29T04:53:29.591Z,12.03
2022-12-29T04:55:59.647Z,12.10
2022-12-29T04:58:27.996Z,12.10
2022-12-29T05:00:55.791Z,12.26
2022-12-29T05:03:26.236Z,12.14
2022-12-29T05:05:55.464Z,12.23
2022-12-29T05:08:27.964Z,12.21
2022-12-29T05:10:59.646Z,12.24
2022-12-29T05:13:28.001Z,12.02
2022-12-29T05:15:56.249Z,11.83
2022-12-29T05:18:25.329Z,11.88
2022-12-29T05:20:53.225Z,11.90
2022-12-29T05:23:22.543Z,12.01
2022-12-29T05:25:59.901Z,11.70
2022-12-29T05:28:32.701Z,11.72
2022-12-29T05:31:13.320Z,11.84
2022-12-29T05:33:41.267Z,12.05
2022-12-29T05:36:11.118Z,12.01
2022-12-29T05:38:43.191Z,12.09
2022-12-29T05:41:13.286Z,11.73
2022-12-29T05:43:43.703Z,11.97
2022-12-29T05:46:37.636Z,11.98
2022-12-29T05:49:21.757Z,11.84
2022-12-29T05:52:24.804Z,12.08
2022-12-29T05:54:53.005Z,11.94
2022-12-29T05:57:24.808Z,11.96
2022-12-29T06:00:01.465Z,11.93
2022-12-29T06:02:30.928Z,11.85
2022-12-29T06:04:59.031Z,11.92
2022-12-29T06:07:26.902Z,12.17
2022-12-29T06:09:54.824Z,11.85
2022-12-29T06:12:23.986Z,11.73
2022-12-29T06:14:54.628Z,11.80
2022-12-29T06:17:23.378Z,11.82
2022-12-29T06:19:52.143Z,11.88
2022-12-29T06:22:21.142Z,11.94
2022-12-29T06:24:49.023Z,11.88
2022-12-29T06:27:17.104Z,11.67
2022-12-29T06:29:47.113Z,11.95
2022-12-29T06:32:15.030Z,11.89
2022-12-29T06:34:47.899Z,11.89
2022-12-29T06:37:15.970Z,11.70
2022-12-29T06:39:44.208Z,11.88
2022-12-29T06:42:16.110Z,12.21
2022-12-29T06:44:51.249Z,12.14
2022-12-29T06:47:19.533Z,12.08
2022-12-29T06:49:47.619Z,12.21
2022-12-29T06:52:15.353Z,12.42
2022-12-29T06:54:43.140Z,12.38
2022-12-29T06:57:10.945Z,12.04
2022-12-29T06:59:38.704Z,12.27
2022-12-29T07:02:07.998Z,12.07
2022-12-29T07:04:35.889Z,11.38
2022-12-29T07:07:03.661Z,11.64
2022-12-29T07:09:31.412Z,11.50
2022-12-29T07:11:59.171Z,12.00
2022-12-29T07:14:26.924Z,11.30
2022-12-29T07:16:54.700Z,11.50
2022-12-29T07:19:23.907Z,11.49
2022-12-29T07:21:51.704Z,11.37
2022-12-29T07:24:19.531Z,11.54
2022-12-29T07:26:47.936Z,11.83
2022-12-29T07:29:15.772Z,11.26
2022-12-29T07:31:43.565Z,11.89
2022-12-29T07:34:11.574Z,11.58
2022-12-29T07:36:40.765Z,11.42
2022-12-29T07:39:08.690Z,11.47
2022-12-29T07:41:36.635Z,11.57
2022-12-29T07:44:04.526Z,11.78
2022-12-29T07:46:57.501Z,11.91
2022-12-29T07:49:25.843Z,11.55
2022-12-29T07:51:55.421Z,11.39
2022-12-29T07:54:23.530Z,11.63
2022-12-29T07:56:52.345Z,11.83
2022-12-29T07:59:20.592Z,11.93
2022-12-29T08:01:48.457Z,11.76
2022-12-29T08:04:16.411Z,11.59
2022-12-29T08:06:44.240Z,11.95
2022-12-29T08:09:18.212Z,11.73
2022-12-29T08:11:49.982Z,11.91
2022-12-29T08:14:17.804Z,11.85
2022-12-29T08:16:45.556Z,11.73
2022-12-29T08:19:14.046Z,12.09
2022-12-29T08:21:44.562Z,11.78
2022-12-29T08:24:13.672Z,11.77
2022-12-29T08:26:42.269Z,11.98
2022-12-29T08:29:10.091Z,11.85
2022-12-29T08:31:37.928Z,12.07
2022-12-29T08:34:06.737Z,12.02
2022-12-29T08:36:34.578Z,12.36
2022-12-29T08:39:02.375Z,11.66
2022-12-29T08:41:31.470Z,11.59
2022-12-29T08:43:59.214Z,11.95
2022-12-29T08:46:26.963Z,11.85
2022-12-29T08:48:57.806Z,11.73
2022-12-29T08:51:25.589Z,11.99
2022-12-29T08:53:53.567Z,11.88
2022-12-29T08:56:21.922Z,12.13
2022-12-29T08:58:55.046Z,11.96
2022-12-29T09:01:24.324Z,12.25
2022-12-29T09:04:14.390Z,12.59
2022-12-29T09:06:40.827Z,12.38
2022-12-29T09:09:08.723Z,11.94
2022-12-29T09:11:36.500Z,11.76
2022-12-29T09:14:05.697Z,11.83
2022-12-29T09:16:33.537Z,11.97
2022-12-29T09:19:02.085Z,12.17
2022-12-29T09:21:30.045Z,12.31
2022-12-29T09:23:57.788Z,12.33
2022-12-29T09:26:25.562Z,12.40
2022-12-29T09:28:53.354Z,12.48
2022-12-29T09:31:23.140Z,12.72
2022-12-29T09:33:51.026Z,12.94
2022-12-29T09:36:18.764Z,12.81
2022-12-29T09:38:46.527Z,12.82
2022-12-29T09:41:21.434Z,12.86
2022-12-29T09:44:05.298Z,12.87
2022-12-29T09:46:40.297Z,12.95
2022-12-29T09:49:23.154Z,12.93
2022-12-29T09:51:54.777Z,13.05
2022-12-29T09:54:32.556Z,13.04
2022-12-29T09:57:01.082Z,12.98
2022-12-29T09:59:40.258Z,12.90
2022-12-29T10:02:31.320Z,13.04
2022-12-29T10:04:59.894Z,13.03
2022-12-29T10:07:38.606Z,13.16
2022-12-29T10:10:22.223Z,13.22
2022-12-29T10:13:01.586Z,13.08
2022-12-29T10:15:41.355Z,12.98
2022-12-29T10:18:23.311Z,13.05
2022-12-29T10:20:56.873Z,13.00
2022-12-29T10:23:30.239Z,12.98
2022-12-29T10:26:02.015Z,12.97
2022-12-29T10:28:37.299Z,12.93
2022-12-29T10:31:10.102Z,12.86
2022-12-29T10:33:43.759Z,12.95
2022-12-29T10:36:18.035Z,13.11
2022-12-29T10:38:50.344Z,13.07
2022-12-29T10:41:23.954Z,12.92
2022-12-29T10:43:54.994Z,13.09
2022-12-29T10:46:25.283Z,13.03
2022-12-29T10:48:54.602Z,12.95
2022-12-29T10:51:26.007Z,12.93
2022-12-29T10:53:57.548Z,12.87
2022-12-29T10:56:34.688Z,13.03
2022-12-29T10:59:09.102Z,13.11
2022-12-29T11:01:43.857Z,13.39
2022-12-29T11:04:33.250Z,13.18
2022-12-29T11:07:02.757Z,13.19
2022-12-29T11:09:48.447Z,13.06
2022-12-29T11:12:26.142Z,13.12
2022-12-29T11:15:12.925Z,13.25
2022-12-29T11:17:46.982Z,13.07
2022-12-29T11:20:35.816Z,13.27
2022-12-29T11:23:05.373Z,13.22
2022-12-29T11:25:33.506Z,13.14
2022-12-29T11:28:05.126Z,13.30
2022-12-29T11:30:34.368Z,13.26
2022-12-29T11:33:05.519Z,13.46
2022-12-29T11:35:40.422Z,13.32
2022-12-29T11:38:20.616Z,13.24
2022-12-29T11:40:49.700Z,13.30
2022-12-29T11:43:25.876Z,13.16
2022-12-29T11:45:55.066Z,13.11
2022-12-29T11:48:23.346Z,13.15
2022-12-29T11:50:55.364Z,13.19
2022-12-29T11:53:25.660Z,13.17
2022-12-29T11:55:56.973Z,13.25
2022-12-29T11:58:30.759Z,13.07
2022-12-29T12:01:02.892Z,13.09
2022-12-29T12:03:34.704Z,13.04
2022-12-29T12:06:04.761Z,12.84
2022-12-29T12:08:37.919Z,12.74
2022-12-29T12:11:11.798Z,12.64
2022-12-29T12:13:45.639Z,12.83
2022-12-29T12:16:17.568Z,12.62
2022-12-29T12:18:51.543Z,12.72
2022-12-29T12:21:27.341Z,13.04
2022-12-29T12:24:25.345Z,13.25
2022-12-29T12:27:00.761Z,13.25
2022-12-29T12:29:37.705Z,12.80
2022-12-29T12:32:14.215Z,12.98
2022-12-29T12:34:45.052Z,12.91
2022-12-29T12:37:35.685Z,13.04
2022-12-29T12:40:26.694Z,12.75
2022-12-29T12:43:07.061Z,12.88
2022-12-29T12:45:49.085Z,12.79
2022-12-29T12:48:39.341Z,12.78
2022-12-29T12:51:19.347Z,12.74
2022-12-29T12:54:04.390Z,12.85
2022-12-29T12:56:49.485Z,12.79
2022-12-29T12:59:32.340Z,12.87
2022-12-29T13:02:09.199Z,12.74
2022-12-29T13:04:59.206Z,12.88
2022-12-29T13:07:37.834Z,12.81
2022-12-29T13:10:23.599Z,12.85
2022-12-29T13:13:02.957Z,12.84
2022-12-29T13:15:45.096Z,12.88
2022-12-29T13:18:24.445Z,12.95
2022-12-29T13:20:58.603Z,13.09
2022-12-29T13:23:34.627Z,12.98
2022-12-29T13:26:11.556Z,13.07
2022-12-29T13:28:54.905Z,13.03
2022-12-29T13:31:32.339Z,13.01
2022-12-29T13:34:06.589Z,12.96
2022-12-29T13:36:40.763Z,12.89
2022-12-29T13:39:21.127Z,12.90
2022-12-29T13:41:53.656Z,12.83
2022-12-29T13:44:24.732Z,13.01
2022-12-29T13:46:54.496Z,13.11
2022-12-29T13:49:25.355Z,13.15
2022-12-29T13:51:56.184Z,12.95
2022-12-29T13:54:37.445Z,13.11
2022-12-29T13:57:12.767Z,13.20
2022-12-29T13:59:51.569Z,13.03
2022-12-29T14:02:28.711Z,13.02
2022-12-29T14:05:02.099Z,12.78
2022-12-29T14:07:31.025Z,12.61
2022-12-29T14:09:59.633Z,12.65
2022-12-29T14:12:35.114Z,12.80
2022-12-29T14:15:08.553Z,12.71
2022-12-29T14:17:45.160Z,12.71
2022-12-29T14:20:21.552Z,12.78
2022-12-29T14:22:59.276Z,12.66
2022-12-29T14:26:16.023Z,12.63
2022-12-29T14:28:46.179Z,13.08
2022-12-29T14:31:41.637Z,13.18
2022-12-29T14:34:39.205Z,13.69
2022-12-29T14:37:24.281Z,12.77
2022-12-29T14:40:05.597Z,12.83
2022-12-29T14:42:33.926Z,12.38
2022-12-29T14:45:07.847Z,12.85
2022-12-29T14:47:38.593Z,13.00
2022-12-29T14:50:08.798Z,13.19
2022-12-29T14:52:48.307Z,13.62
2022-12-29T14:55:39.379Z,13.43
2022-12-29T14:58:13.690Z,13.48
2022-12-29T15:00:44.402Z,12.53
2022-12-29T15:03:20.033Z,12.16
2022-12-29T15:05:50.927Z,12.55
2022-12-29T15:08:21.687Z,12.97
2022-12-29T15:10:55.530Z,12.14
2022-12-29T15:13:26.106Z,12.55
2022-12-29T15:15:55.480Z,12.49
2022-12-29T15:18:28.702Z,12.17
2022-12-29T15:20:59.057Z,11.27
2022-12-29T15:23:27.502Z,10.39
2022-12-29T15:25:57.808Z,9.86
2022-12-29T15:28:26.719Z,9.56
2022-12-29T15:30:58.145Z,9.17
2022-12-29T15:33:28.795Z,9.17
2022-12-29T15:35:58.903Z,8.91
2022-12-29T15:38:34.532Z,8.94
2022-12-29T15:41:08.923Z,8.77
2022-12-29T15:44:00.299Z,8.91
2022-12-29T15:46:31.633Z,8.99
2022-12-29T15:48:59.541Z,9.17
2022-12-29T15:51:31.940Z,9.13
2022-12-29T15:54:00.159Z,9.09
2022-12-29T15:56:31.161Z,9.16
2022-12-29T15:58:59.669Z,9.20
2022-12-29T16:01:32.047Z,9.18
2022-12-29T16:04:01.408Z,9.21
2022-12-29T16:06:32.599Z,9.30
2022-12-29T16:09:03.524Z,9.29
2022-12-29T16:11:38.255Z,9.27
2022-12-29T16:14:11.113Z,9.28
2022-12-29T16:16:43.296Z,9.46
2022-12-29T16:19:15.740Z,9.39
2022-12-29T16:21:44.752Z,9.39
2022-12-29T16:24:16.958Z,9.56
2022-12-29T16:26:49.754Z,9.56
2022-12-29T16:29:18.492Z,9.55
2022-12-29T16:32:00.864Z,9.84
2022-12-29T16:34:31.899Z,9.79
2022-12-29T16:37:02.102Z,9.97
2022-12-29T16:39:33.405Z,9.93
2022-12-29T16:42:01.670Z,9.63
2022-12-29T16:44:31.395Z,9.75
2022-12-29T16:47:04.845Z,9.47
2022-12-29T16:49:34.749Z,9.52
2022-12-29T16:52:03.205Z,9.43
2022-12-29T16:54:36.160Z,9.50
2022-12-29T16:57:04.416Z,9.36
2022-12-29T16:59:36.234Z,9.46
2022-12-29T17:02:09.684Z,9.48
2022-12-29T17:04:37.618Z,9.50
2022-12-29T17:07:06.793Z,9.50
2022-12-29T17:09:34.568Z,9.45
2022-12-29T17:12:10.761Z,9.43
2022-12-29T17:14:45.087Z,9.59
2022-12-29T17:17:21.316Z,9.30
2022-12-29T17:19:52.583Z,9.37
2022-12-29T17:22:25.058Z,9.32
2022-12-29T17:24:53.664Z,9.45
2022-12-29T17:27:26.100Z,9.24
2022-12-29T17:29:57.132Z,9.20
2022-12-29T17:32:26.592Z,9.33
2022-12-29T17:34:54.382Z,9.22
2022-12-29T17:37:32.726Z,9.08
2022-12-29T17:40:00.517Z,9.12
2022-12-29T17:42:28.519Z,9.11
2022-12-29T17:44:56.883Z,9.21
2022-12-29T17:47:25.977Z,9.14
2022-12-29T17:49:53.881Z,9.28
2022-12-29T17:52:22.283Z,9.34
2022-12-29T17:54:53.371Z,9.17
2022-12-29T17:57:22.383Z,9.24
2022-12-29T17:59:50.232Z,9.29
2022-12-29T18:02:29.337Z,9.14
2022-12-29T18:04:58.460Z,9.04
2022-12-29T18:07:35.419Z,9.07
2022-12-29T18:10:04.649Z,9.05
2022-12-29T18:12:38.659Z,8.94
2022-12-29T18:15:07.763Z,8.95
2022-12-29T18:17:36.931Z,8.90
2022-12-29T18:20:05.171Z,8.86
2022-12-29T18:22:32.986Z,8.77
2022-12-29T18:25:02.056Z,8.72
2022-12-29T18:27:30.095Z,8.67
2022-12-29T18:29:57.903Z,8.82
2022-12-29T18:32:25.747Z,8.73
2022-12-29T18:34:55.014Z,8.62
2022-12-29T18:37:22.835Z,8.68
2022-12-29T18:39:51.208Z,8.68
2022-12-29T18:42:19.531Z,8.58
2022-12-29T18:44:47.302Z,8.59
2022-12-29T18:47:15.213Z,8.63
2022-12-29T18:49:43.669Z,8.50
2022-12-29T18:52:14.865Z,8.59
2022-12-29T18:54:42.837Z,8.56
2022-12-29T18:57:10.598Z,8.59
2022-12-29T18:59:39.083Z,8.57
2022-12-29T19:02:06.945Z,8.47
2022-12-29T19:04:34.735Z,8.47
2022-12-29T19:07:02.478Z,8.34
2022-12-29T19:09:31.780Z,8.19
2022-12-29T19:11:59.479Z,8.22
2022-12-29T19:14:27.305Z,8.13
2022-12-29T19:16:55.102Z,7.96
2022-12-29T19:19:22.908Z,7.81
2022-12-29T19:21:56.284Z,7.86
2022-12-29T19:24:24.070Z,8.01
2022-12-29T19:26:53.277Z,8.07
2022-12-29T19:29:22.330Z,7.95
2022-12-29T19:31:50.146Z,8.03
2022-12-29T19:34:18.978Z,8.10
2022-12-29T19:36:47.051Z,8.01
2022-12-29T19:39:14.968Z,8.27
2022-12-29T19:41:42.805Z,8.08
2022-12-29T19:44:11.862Z,8.03
2022-12-29T19:46:39.756Z,8.13
2022-12-29T19:49:07.612Z,8.06
2022-12-29T19:51:35.423Z,8.20
2022-12-29T19:54:06.214Z,8.07
2022-12-29T19:56:34.063Z,8.06
2022-12-29T19:59:01.762Z,7.98
2022-12-29T20:01:30.960Z,7.97
2022-12-29T20:03:59.188Z,8.04
2022-12-29T20:06:26.991Z,8.10
2022-12-29T20:08:55.518Z,7.99
2022-12-29T20:11:23.226Z,7.97
2022-12-29T20:13:51.179Z,8.01
2022-12-29T20:16:20.760Z,8.07
2022-12-29T20:18:50.755Z,8.03
2022-12-29T20:21:20.443Z,8.03
2022-12-29T20:23:48.950Z,8.00
2022-12-29T20:26:18.876Z,7.98
2022-12-29T20:28:47.407Z,7.92
2022-12-29T20:31:19.432Z,7.93
2022-12-29T20:33:47.291Z,7.87
2022-12-29T20:36:19.029Z,7.94
2022-12-29T20:38:47.700Z,7.80
2022-12-29T20:41:15.789Z,7.81
2022-12-29T20:43:43.653Z,7.86
2022-12-29T20:46:18.079Z,7.93
2022-12-29T20:48:48.647Z,7.89
2022-12-29T20:51:18.431Z,7.84
2022-12-29T20:53:46.360Z,8.01
2022-12-29T20:56:16.080Z,7.86
2022-12-29T20:59:17.099Z,7.87
2022-12-29T21:01:32.055Z,7.94
2022-12-29T21:04:00.745Z,7.91
2022-12-29T21:06:29.861Z,7.86
2022-12-29T21:08:57.601Z,7.91
2022-12-29T21:11:25.555Z,7.76
2022-12-29T21:13:53.379Z,7.79
2022-12-29T21:16:21.855Z,7.78
2022-12-29T21:18:50.052Z,7.77
2022-12-29T21:21:20.085Z,7.76
2022-12-29T21:23:49.657Z,7.69
2022-12-29T21:26:19.774Z,7.84
2022-12-29T21:28:48.011Z,7.92
2022-12-29T21:31:26.723Z,7.82
2022-12-29T21:33:55.189Z,7.78
2022-12-29T21:36:24.409Z,7.89
2022-12-29T21:38:53.917Z,7.77
2022-12-29T21:41:22.380Z,7.73
2022-12-29T21:44:04.347Z,7.68
2022-12-29T21:46:32.238Z,7.81
2022-12-29T21:49:02.998Z,7.92
2022-12-29T21:51:48.503Z,8.02
2022-12-29T21:54:39.844Z,8.01
2022-12-29T21:57:08.531Z,7.95
2022-12-29T22:00:01.217Z,8.18
2022-12-29T22:02:46.624Z,7.88
2022-12-29T22:05:35.712Z,7.94
2022-12-29T22:08:26.715Z,7.79
2022-12-29T22:11:13.176Z,8.00
2022-12-29T22:13:41.460Z,7.81
2022-12-29T22:16:11.357Z,7.72
2022-12-29T22:18:39.673Z,7.83
2022-12-29T22:21:08.725Z,7.74
2022-12-29T22:23:37.592Z,8.16
2022-12-29T22:26:16.697Z,7.78
2022-12-29T22:28:47.856Z,7.96
2022-12-29T22:31:29.355Z,8.01
2022-12-29T22:33:57.947Z,8.01
2022-12-29T22:36:27.134Z,8.30
2022-12-29T22:38:55.135Z,8.45
2022-12-29T22:41:25.127Z,8.65
2022-12-29T22:43:52.927Z,8.28
2022-12-29T22:46:37.450Z,8.40
2022-12-29T22:49:06.526Z,8.73
2022-12-29T22:51:36.905Z,9.62
2022-12-29T22:54:04.786Z,9.94
2022-12-29T22:56:42.095Z,9.03
2022-12-29T22:59:13.577Z,8.85
2022-12-29T23:01:44.184Z,8.84
2022-12-29T23:04:59.202Z,9.45
2022-12-29T23:06:59.845Z,9.76
2022-12-29T23:09:30.305Z,9.16
2022-12-29T23:11:59.611Z,9.40
2022-12-29T23:14:29.983Z,9.07
2022-12-29T23:16:57.725Z,9.30
2022-12-29T23:19:26.863Z,9.60
2022-12-29T23:21:56.697Z,9.95
2022-12-29T23:24:28.253Z,9.95
2022-12-29T23:26:56.296Z,9.78
2022-12-29T23:29:25.489Z,10.16
2022-12-29T23:31:56.045Z,9.95
2022-12-29T23:34:23.792Z,9.65
2022-12-29T23:36:51.978Z,9.85
2022-12-29T23:39:23.216Z,9.65
2022-12-29T23:41:51.044Z,9.43
2022-12-29T23:44:19.074Z,9.49
2022-12-29T23:46:51.301Z,9.16
2022-12-29T23:49:24.431Z,9.32
2022-12-29T23:51:56.034Z,9.20
2022-12-29T23:54:25.321Z,9.36
2022-12-29T23:56:53.045Z,9.52
2022-12-29T23:59:20.901Z,9.48
